Terminal Aerodrome Forecast
Issued by NWS Sterling, VA

Current Version | Previous Version | Text Only | Print | Product List | Glossary Off
Versions: 1 2 3 4 5 6 7 8 9 10 11 12 13 14 15 16 17 18 19 20 21 22 23

000
FTUS41 KLWX 170500 RRA
TAFDCA
TAF
KDCA 170542Z 1706/1806 28005KT 4SM BR OVC007
     FM171200 27006KT P6SM SCT007 SCT040
     FM171500 29012G22KT P6SM SCT050
     FM172300 30009KT P6SM FEW100=

USA.gov is the U.S. government's official web portal to all federal, state and local government web resources and services.